sensor_id;sensor_type;location;lat;lon;timestamp;P1;durP1;ratioP1;P2;durP2;ratioP2
6825;SDS011;3451;52.476;13.316;2023-05-10T00:00:17;10.17;;;5.70;;
6825;SDS011;3451;52.476;13.316;2023-05-10T00:02:45;12.23;;;5.40;;
6825;SDS011;3451;52.476;13.316;2023-05-10T00:05:11;8.43;;;5.47;;
6825;SDS011;3451;52.476;13.316;2023-05-10T00:07:38;7.97;;;5.60;;
6825;SDS011;3451;52.476;13.316;2023-05-10T00:10:04;6.27;;;4.70;;
6825;SDS011;3451;52.476;13.316;2023-05-10T00:12:31;7.73;;;5.10;;
6825;SDS011;3451;52.476;13.316;2023-05-10T00:14:57;8.87;;;5.37;;
6825;SDS011;3451;52.476;13.316;2023-05-10T00:17:24;7.13;;;5.23;;
6825;SDS011;3451;52.476;13.316;2023-05-10T00:19:50;7.90;;;5.40;;
6825;SDS011;3451;52.476;13.316;2023-05-10T00:22:16;7.20;;;5.20;;
6825;SDS011;3451;52.476;13.316;2023-05-10T00:24:43;7.20;;;5.60;;
6825;SDS011;3451;52.476;13.316;2023-05-10T00:27:09;7.43;;;5.60;;
6825;SDS011;3451;52.476;13.316;2023-05-10T00:29:35;7.53;;;5.50;;
6825;SDS011;3451;52.476;13.316;2023-05-10T00:32:01;8.07;;;5.50;;
6825;SDS011;3451;52.476;13.316;2023-05-10T00:34:28;5.70;;;4.97;;
6825;SDS011;3451;52.476;13.316;2023-05-10T00:36:54;7.97;;;5.23;;
6825;SDS011;3451;52.476;13.316;2023-05-10T00:39:20;6.50;;;5.23;;
6825;SDS011;3451;52.476;13.316;2023-05-10T00:41:47;9.60;;;5.70;;
6825;SDS011;3451;52.476;13.316;2023-05-10T00:44:13;6.90;;;5.30;;
6825;SDS011;3451;52.476;13.316;2023-05-10T00:46:40;8.47;;;5.37;;
6825;SDS011;3451;52.476;13.316;2023-05-10T00:49:07;7.93;;;4.80;;
6825;SDS011;3451;52.476;13.316;2023-05-10T00:51:33;8.87;;;6.00;;
6825;SDS011;3451;52.476;13.316;2023-05-10T00:53:59;9.13;;;5.47;;
6825;SDS011;3451;52.476;13.316;2023-05-10T00:56:26;8.50;;;6.07;;
6825;SDS011;3451;52.476;13.316;2023-05-10T00:58:52;8.13;;;5.60;;
6825;SDS011;3451;52.476;13.316;2023-05-10T01:01:19;12.50;;;5.60;;
6825;SDS011;3451;52.476;13.316;2023-05-10T01:03:45;9.63;;;5.57;;
6825;SDS011;3451;52.476;13.316;2023-05-10T01:06:13;10.93;;;5.70;;
6825;SDS011;3451;52.476;13.316;2023-05-10T01:08:39;7.07;;;5.30;;
6825;SDS011;3451;52.476;13.316;2023-05-10T01:11:06;9.20;;;6.20;;
6825;SDS011;3451;52.476;13.316;2023-05-10T01:16:02;6.63;;;5.40;;
6825;SDS011;3451;52.476;13.316;2023-05-10T01:18:29;8.23;;;5.90;;
6825;SDS011;3451;52.476;13.316;2023-05-10T01:26:14;7.77;;;5.90;;
6825;SDS011;3451;52.476;13.316;2023-05-10T01:28:50;8.47;;;6.07;;
6825;SDS011;3451;52.476;13.316;2023-05-10T01:34:07;11.80;;;6.80;;
6825;SDS011;3451;52.476;13.316;2023-05-10T01:36:39;9.43;;;6.10;;
6825;SDS011;3451;52.476;13.316;2023-05-10T01:39:10;9.30;;;6.33;;
6825;SDS011;3451;52.476;13.316;2023-05-10T01:44:24;8.33;;;5.97;;
6825;SDS011;3451;52.476;13.316;2023-05-10T01:47:01;8.57;;;6.10;;
6825;SDS011;3451;52.476;13.316;2023-05-10T01:49:30;10.90;;;6.27;;
6825;SDS011;3451;52.476;13.316;2023-05-10T01:51:59;9.43;;;6.57;;
6825;SDS011;3451;52.476;13.316;2023-05-10T01:54:26;7.83;;;5.97;;
6825;SDS011;3451;52.476;13.316;2023-05-10T01:56:59;7.77;;;6.20;;
6825;SDS011;3451;52.476;13.316;2023-05-10T01:59:28;11.70;;;6.33;;
6825;SDS011;3451;52.476;13.316;2023-05-10T02:01:56;9.20;;;6.37;;
6825;SDS011;3451;52.476;13.316;2023-05-10T02:04:23;7.63;;;6.30;;
6825;SDS011;3451;52.476;13.316;2023-05-10T02:06:51;9.63;;;6.53;;
6825;SDS011;3451;52.476;13.316;2023-05-10T02:09:18;8.57;;;6.07;;
6825;SDS011;3451;52.476;13.316;2023-05-10T02:11:46;8.60;;;5.63;;
6825;SDS011;3451;52.476;13.316;2023-05-10T02:14:14;9.67;;;6.23;;
6825;SDS011;3451;52.476;13.316;2023-05-10T02:16:41;7.73;;;6.13;;
6825;SDS011;3451;52.476;13.316;2023-05-10T02:19:08;8.37;;;6.47;;
6825;SDS011;3451;52.476;13.316;2023-05-10T02:21:35;8.50;;;6.00;;
6825;SDS011;3451;52.476;13.316;2023-05-10T02:24:01;8.50;;;6.90;;
6825;SDS011;3451;52.476;13.316;2023-05-10T02:26:28;7.90;;;6.00;;
6825;SDS011;3451;52.476;13.316;2023-05-10T02:28:55;11.80;;;6.97;;
6825;SDS011;3451;52.476;13.316;2023-05-10T02:31:22;7.57;;;5.93;;
6825;SDS011;3451;52.476;13.316;2023-05-10T02:33:49;8.53;;;6.53;;
6825;SDS011;3451;52.476;13.316;2023-05-10T02:36:16;8.80;;;6.80;;
6825;SDS011;3451;52.476;13.316;2023-05-10T02:38:42;10.40;;;6.37;;
6825;SDS011;3451;52.476;13.316;2023-05-10T02:41:09;9.23;;;6.30;;
6825;SDS011;3451;52.476;13.316;2023-05-10T02:43:36;8.57;;;6.30;;
6825;SDS011;3451;52.476;13.316;2023-05-10T02:46:03;10.47;;;6.43;;
6825;SDS011;3451;52.476;13.316;2023-05-10T02:48:29;8.70;;;5.87;;
6825;SDS011;3451;52.476;13.316;2023-05-10T02:50:57;8.43;;;6.20;;
6825;SDS011;3451;52.476;13.316;2023-05-10T02:53:30;8.97;;;6.30;;
6825;SDS011;3451;52.476;13.316;2023-05-10T02:55:58;8.73;;;5.87;;
6825;SDS011;3451;52.476;13.316;2023-05-10T02:58:26;17.47;;;5.97;;
6825;SDS011;3451;52.476;13.316;2023-05-10T03:00:53;8.63;;;5.90;;
6825;SDS011;3451;52.476;13.316;2023-05-10T03:03:19;9.53;;;6.43;;
6825;SDS011;3451;52.476;13.316;2023-05-10T03:05:46;8.67;;;6.07;;
6825;SDS011;3451;52.476;13.316;2023-05-10T03:08:12;9.70;;;6.80;;
6825;SDS011;3451;52.476;13.316;2023-05-10T03:10:41;8.40;;;6.13;;
6825;SDS011;3451;52.476;13.316;2023-05-10T03:13:16;7.53;;;6.10;;
6825;SDS011;3451;52.476;13.316;2023-05-10T03:15:57;9.60;;;5.97;;
6825;SDS011;3451;52.476;13.316;2023-05-10T03:21:11;13.70;;;7.13;;
6825;SDS011;3451;52.476;13.316;2023-05-10T03:23:40;8.17;;;5.90;;
6825;SDS011;3451;52.476;13.316;2023-05-10T03:26:07;8.60;;;6.00;;
6825;SDS011;3451;52.476;13.316;2023-05-10T03:28:34;10.00;;;5.80;;
6825;SDS011;3451;52.476;13.316;2023-05-10T03:31:01;7.77;;;5.77;;
6825;SDS011;3451;52.476;13.316;2023-05-10T03:33:28;7.37;;;5.87;;
6825;SDS011;3451;52.476;13.316;2023-05-10T03:35:54;11.20;;;6.27;;
6825;SDS011;3451;52.476;13.316;2023-05-10T03:38:21;8.87;;;5.87;;
6825;SDS011;3451;52.476;13.316;2023-05-10T03:40:47;8.73;;;5.57;;
6825;SDS011;3451;52.476;13.316;2023-05-10T03:43:13;9.00;;;5.40;;
6825;SDS011;3451;52.476;13.316;2023-05-10T03:45:40;7.70;;;6.03;;
6825;SDS011;3451;52.476;13.316;2023-05-10T03:48:07;10.83;;;5.77;;
6825;SDS011;3451;52.476;13.316;2023-05-10T03:50:33;6.97;;;5.40;;
6825;SDS011;3451;52.476;13.316;2023-05-10T03:52:59;7.27;;;5.20;;
6825;SDS011;3451;52.476;13.316;2023-05-10T03:55:26;8.20;;;5.43;;
6825;SDS011;3451;52.476;13.316;2023-05-10T03:57:52;9.63;;;5.70;;
6825;SDS011;3451;52.476;13.316;2023-05-10T04:00:20;6.80;;;5.20;;
6825;SDS011;3451;52.476;13.316;2023-05-10T04:02:46;7.67;;;5.80;;
6825;SDS011;3451;52.476;13.316;2023-05-10T04:05:12;6.33;;;5.60;;
6825;SDS011;3451;52.476;13.316;2023-05-10T04:07:39;9.80;;;5.60;;
6825;SDS011;3451;52.476;13.316;2023-05-10T04:10:05;7.37;;;5.40;;
6825;SDS011;3451;52.476;13.316;2023-05-10T04:12:32;8.03;;;5.20;;
6825;SDS011;3451;52.476;13.316;2023-05-10T04:14:58;7.33;;;5.67;;
6825;SDS011;3451;52.476;13.316;2023-05-10T04:17:25;7.37;;;5.53;;
6825;SDS011;3451;52.476;13.316;2023-05-10T04:19:51;8.83;;;5.27;;
6825;SDS011;3451;52.476;13.316;2023-05-10T04:22:20;10.27;;;5.37;;
6825;SDS011;3451;52.476;13.316;2023-05-10T04:24:46;8.47;;;5.00;;
6825;SDS011;3451;52.476;13.316;2023-05-10T04:27:13;7.73;;;5.20;;
6825;SDS011;3451;52.476;13.316;2023-05-10T04:29:39;6.57;;;5.20;;
6825;SDS011;3451;52.476;13.316;2023-05-10T04:32:05;8.13;;;4.77;;
6825;SDS011;3451;52.476;13.316;2023-05-10T04:34:32;8.03;;;4.90;;
6825;SDS011;3451;52.476;13.316;2023-05-10T04:37:00;7.20;;;5.17;;
6825;SDS011;3451;52.476;13.316;2023-05-10T04:39:26;6.30;;;4.67;;
6825;SDS011;3451;52.476;13.316;2023-05-10T04:41:52;7.47;;;5.13;;
6825;SDS011;3451;52.476;13.316;2023-05-10T04:44:19;6.33;;;4.97;;
6825;SDS011;3451;52.476;13.316;2023-05-10T04:46:45;7.13;;;4.80;;
6825;SDS011;3451;52.476;13.316;2023-05-10T04:49:12;12.13;;;4.77;;
6825;SDS011;3451;52.476;13.316;2023-05-10T04:51:38;7.33;;;4.90;;
6825;SDS011;3451;52.476;13.316;2023-05-10T04:54:05;7.63;;;5.37;;
6825;SDS011;3451;52.476;13.316;2023-05-10T04:56:32;6.10;;;4.90;;
6825;SDS011;3451;52.476;13.316;2023-05-10T04:58:59;7.57;;;5.00;;
6825;SDS011;3451;52.476;13.316;2023-05-10T05:01:25;11.10;;;5.03;;
6825;SDS011;3451;52.476;13.316;2023-05-10T05:03:51;8.97;;;4.70;;
6825;SDS011;3451;52.476;13.316;2023-05-10T05:06:19;6.63;;;4.80;;
6825;SDS011;3451;52.476;13.316;2023-05-10T05:08:47;6.50;;;4.67;;
6825;SDS011;3451;52.476;13.316;2023-05-10T05:11:15;8.27;;;4.60;;
6825;SDS011;3451;52.476;13.316;2023-05-10T05:13:41;6.87;;;4.50;;
6825;SDS011;3451;52.476;13.316;2023-05-10T05:16:08;7.47;;;4.77;;
6825;SDS011;3451;52.476;13.316;2023-05-10T05:18:34;7.97;;;5.00;;
6825;SDS011;3451;52.476;13.316;2023-05-10T05:21:00;7.50;;;4.50;;
6825;SDS011;3451;52.476;13.316;2023-05-10T05:23:27;7.37;;;4.20;;
6825;SDS011;3451;52.476;13.316;2023-05-10T05:25:58;6.17;;;4.13;;
6825;SDS011;3451;52.476;13.316;2023-05-10T05:28:25;9.07;;;4.50;;
6825;SDS011;3451;52.476;13.316;2023-05-10T05:30:51;11.00;;;4.67;;
6825;SDS011;3451;52.476;13.316;2023-05-10T05:33:18;8.70;;;4.03;;
6825;SDS011;3451;52.476;13.316;2023-05-10T05:35:44;12.33;;;4.60;;
6825;SDS011;3451;52.476;13.316;2023-05-10T05:38:16;7.83;;;4.07;;
6825;SDS011;3451;52.476;13.316;2023-05-10T05:40:43;5.67;;;4.27;;
6825;SDS011;3451;52.476;13.316;2023-05-10T05:43:11;6.97;;;4.47;;
6825;SDS011;3451;52.476;13.316;2023-05-10T05:45:37;6.57;;;4.20;;
6825;SDS011;3451;52.476;13.316;2023-05-10T05:48:04;10.77;;;3.90;;
6825;SDS011;3451;52.476;13.316;2023-05-10T05:50:30;6.10;;;4.07;;
6825;SDS011;3451;52.476;13.316;2023-05-10T05:52:57;9.77;;;3.73;;
6825;SDS011;3451;52.476;13.316;2023-05-10T05:55:23;5.77;;;3.90;;
6825;SDS011;3451;52.476;13.316;2023-05-10T05:57:51;8.27;;;4.10;;
6825;SDS011;3451;52.476;13.316;2023-05-10T06:00:18;8.40;;;3.67;;
6825;SDS011;3451;52.476;13.316;2023-05-10T06:02:44;7.77;;;3.70;;
6825;SDS011;3451;52.476;13.316;2023-05-10T06:05:11;9.47;;;4.13;;
6825;SDS011;3451;52.476;13.316;2023-05-10T06:07:38;6.40;;;4.00;;
6825;SDS011;3451;52.476;13.316;2023-05-10T06:10:04;10.47;;;3.63;;
6825;SDS011;3451;52.476;13.316;2023-05-10T06:12:31;5.77;;;3.17;;
6825;SDS011;3451;52.476;13.316;2023-05-10T06:14:58;5.97;;;3.50;;
6825;SDS011;3451;52.476;13.316;2023-05-10T06:17:24;3.90;;;3.20;;
6825;SDS011;3451;52.476;13.316;2023-05-10T06:19:51;8.10;;;3.43;;
6825;SDS011;3451;52.476;13.316;2023-05-10T06:22:17;5.30;;;3.50;;
6825;SDS011;3451;52.476;13.316;2023-05-10T06:24:43;6.43;;;3.47;;
6825;SDS011;3451;52.476;13.316;2023-05-10T06:27:10;7.00;;;3.50;;
6825;SDS011;3451;52.476;13.316;2023-05-10T06:29:36;8.13;;;3.27;;
6825;SDS011;3451;52.476;13.316;2023-05-10T06:32:03;5.83;;;3.10;;
6825;SDS011;3451;52.476;13.316;2023-05-10T06:34:29;4.03;;;3.20;;
6825;SDS011;3451;52.476;13.316;2023-05-10T06:36:55;6.20;;;2.93;;
6825;SDS011;3451;52.476;13.316;2023-05-10T06:39:22;8.47;;;3.10;;
6825;SDS011;3451;52.476;13.316;2023-05-10T06:41:48;5.77;;;2.93;;
6825;SDS011;3451;52.476;13.316;2023-05-10T06:44:14;5.10;;;2.80;;
6825;SDS011;3451;52.476;13.316;2023-05-10T06:46:41;5.83;;;2.90;;
6825;SDS011;3451;52.476;13.316;2023-05-10T06:49:08;3.57;;;2.60;;
6825;SDS011;3451;52.476;13.316;2023-05-10T06:51:34;7.70;;;2.70;;
6825;SDS011;3451;52.476;13.316;2023-05-10T06:54:00;5.07;;;2.80;;
6825;SDS011;3451;52.476;13.316;2023-05-10T06:56:27;4.67;;;2.83;;
6825;SDS011;3451;52.476;13.316;2023-05-10T06:58:54;3.47;;;2.60;;
6825;SDS011;3451;52.476;13.316;2023-05-10T07:01:20;3.28;;;2.72;;
6825;SDS011;3451;52.476;13.316;2023-05-10T07:03:47;8.00;;;2.80;;
6825;SDS011;3451;52.476;13.316;2023-05-10T07:06:13;3.35;;;2.28;;
6825;SDS011;3451;52.476;13.316;2023-05-10T07:08:58;3.97;;;2.00;;
6825;SDS011;3451;52.476;13.316;2023-05-10T07:11:24;4.38;;;2.25;;
6825;SDS011;3451;52.476;13.316;2023-05-10T07:13:50;2.67;;;1.98;;
6825;SDS011;3451;52.476;13.316;2023-05-10T07:16:17;3.20;;;2.42;;
6825;SDS011;3451;52.476;13.316;2023-05-10T07:18:43;3.00;;;2.10;;
6825;SDS011;3451;52.476;13.316;2023-05-10T07:21:09;4.85;;;2.00;;
6825;SDS011;3451;52.476;13.316;2023-05-10T07:23:36;6.20;;;2.08;;
6825;SDS011;3451;52.476;13.316;2023-05-10T07:26:02;6.43;;;2.13;;
6825;SDS011;3451;52.476;13.316;2023-05-10T07:28:28;4.38;;;2.10;;
6825;SDS011;3451;52.476;13.316;2023-05-10T07:30:55;2.90;;;1.95;;
6825;SDS011;3451;52.476;13.316;2023-05-10T07:33:21;6.00;;;1.95;;
6825;SDS011;3451;52.476;13.316;2023-05-10T07:35:48;4.55;;;1.80;;
6825;SDS011;3451;52.476;13.316;2023-05-10T07:38:14;3.67;;;1.95;;
6825;SDS011;3451;52.476;13.316;2023-05-10T07:40:40;3.72;;;1.90;;
6825;SDS011;3451;52.476;13.316;2023-05-10T07:43:07;2.33;;;1.80;;
6825;SDS011;3451;52.476;13.316;2023-05-10T07:45:33;4.15;;;2.28;;
6825;SDS011;3451;52.476;13.316;2023-05-10T07:47:59;4.20;;;2.08;;
6825;SDS011;3451;52.476;13.316;2023-05-10T07:50:26;4.38;;;1.90;;
6825;SDS011;3451;52.476;13.316;2023-05-10T07:52:52;2.60;;;1.90;;
6825;SDS011;3451;52.476;13.316;2023-05-10T07:55:19;2.75;;;2.15;;
6825;SDS011;3451;52.476;13.316;2023-05-10T07:57:47;2.30;;;2.08;;
6825;SDS011;3451;52.476;13.316;2023-05-10T08:00:16;4.25;;;1.95;;
6825;SDS011;3451;52.476;13.316;2023-05-10T08:02:43;6.15;;;2.30;;
6825;SDS011;3451;52.476;13.316;2023-05-10T08:05:09;4.15;;;2.10;;
6825;SDS011;3451;52.476;13.316;2023-05-10T08:07:36;3.65;;;2.00;;
6825;SDS011;3451;52.476;13.316;2023-05-10T08:10:03;4.57;;;2.15;;
6825;SDS011;3451;52.476;13.316;2023-05-10T08:12:29;3.22;;;2.42;;
6825;SDS011;3451;52.476;13.316;2023-05-10T08:14:56;4.63;;;2.55;;
6825;SDS011;3451;52.476;13.316;2023-05-10T08:17:23;3.30;;;2.05;;
6825;SDS011;3451;52.476;13.316;2023-05-10T08:19:50;5.22;;;2.50;;
6825;SDS011;3451;52.476;13.316;2023-05-10T08:22:16;5.28;;;2.40;;
6825;SDS011;3451;52.476;13.316;2023-05-10T08:24:42;6.00;;;2.72;;
6825;SDS011;3451;52.476;13.316;2023-05-10T08:27:08;4.40;;;2.42;;
6825;SDS011;3451;52.476;13.316;2023-05-10T08:29:35;2.90;;;2.50;;
6825;SDS011;3451;52.476;13.316;2023-05-10T08:32:15;5.47;;;2.57;;
6825;SDS011;3451;52.476;13.316;2023-05-10T08:34:41;7.23;;;2.70;;
6825;SDS011;3451;52.476;13.316;2023-05-10T08:37:08;3.53;;;2.40;;
6825;SDS011;3451;52.476;13.316;2023-05-10T08:39:34;6.20;;;2.63;;
6825;SDS011;3451;52.476;13.316;2023-05-10T08:42:02;4.73;;;2.27;;
6825;SDS011;3451;52.476;13.316;2023-05-10T08:44:28;2.80;;;2.50;;
6825;SDS011;3451;52.476;13.316;2023-05-10T08:46:56;5.27;;;2.47;;
6825;SDS011;3451;52.476;13.316;2023-05-10T08:49:23;7.93;;;2.60;;
6825;SDS011;3451;52.476;13.316;2023-05-10T08:51:54;2.97;;;2.20;;
6825;SDS011;3451;52.476;13.316;2023-05-10T08:54:21;6.03;;;2.77;;
6825;SDS011;3451;52.476;13.316;2023-05-10T08:56:48;4.53;;;2.73;;
6825;SDS011;3451;52.476;13.316;2023-05-10T08:59:15;6.47;;;2.80;;
6825;SDS011;3451;52.476;13.316;2023-05-10T09:01:42;3.10;;;2.53;;
6825;SDS011;3451;52.476;13.316;2023-05-10T09:04:10;7.83;;;2.70;;
6825;SDS011;3451;52.476;13.316;2023-05-10T09:06:36;5.33;;;2.87;;
6825;SDS011;3451;52.476;13.316;2023-05-10T09:09:03;4.23;;;2.33;;
6825;SDS011;3451;52.476;13.316;2023-05-10T09:11:29;3.27;;;2.57;;
6825;SDS011;3451;52.476;13.316;2023-05-10T09:13:56;6.50;;;2.80;;
6825;SDS011;3451;52.476;13.316;2023-05-10T09:16:23;5.00;;;2.60;;
6825;SDS011;3451;52.476;13.316;2023-05-10T09:18:49;4.43;;;2.53;;
6825;SDS011;3451;52.476;13.316;2023-05-10T09:21:16;6.57;;;2.90;;
6825;SDS011;3451;52.476;13.316;2023-05-10T09:23:43;8.13;;;2.80;;
6825;SDS011;3451;52.476;13.316;2023-05-10T09:26:13;5.37;;;2.80;;
6825;SDS011;3451;52.476;13.316;2023-05-10T09:28:52;8.90;;;2.77;;
6825;SDS011;3451;52.476;13.316;2023-05-10T09:31:18;7.80;;;2.53;;
6825;SDS011;3451;52.476;13.316;2023-05-10T09:33:45;4.43;;;2.57;;
6825;SDS011;3451;52.476;13.316;2023-05-10T09:36:15;3.70;;;2.80;;
6825;SDS011;3451;52.476;13.316;2023-05-10T09:38:45;3.30;;;2.60;;
6825;SDS011;3451;52.476;13.316;2023-05-10T09:41:18;3.57;;;2.60;;
6825;SDS011;3451;52.476;13.316;2023-05-10T09:43:44;4.77;;;2.57;;
6825;SDS011;3451;52.476;13.316;2023-05-10T09:46:11;3.17;;;2.40;;
6825;SDS011;3451;52.476;13.316;2023-05-10T09:48:45;4.50;;;2.37;;
6825;SDS011;3451;52.476;13.316;2023-05-10T09:51:21;2.53;;;2.33;;
6825;SDS011;3451;52.476;13.316;2023-05-10T09:53:47;5.23;;;2.50;;
6825;SDS011;3451;52.476;13.316;2023-05-10T09:56:32;3.20;;;2.33;;
6825;SDS011;3451;52.476;13.316;2023-05-10T09:59:02;3.57;;;2.53;;
6825;SDS011;3451;52.476;13.316;2023-05-10T10:01:28;3.80;;;2.60;;
6825;SDS011;3451;52.476;13.316;2023-05-10T10:03:55;5.43;;;2.37;;
6825;SDS011;3451;52.476;13.316;2023-05-10T10:06:24;4.23;;;2.57;;
6825;SDS011;3451;52.476;13.316;2023-05-10T10:08:55;5.87;;;2.30;;
6825;SDS011;3451;52.476;13.316;2023-05-10T10:11:22;3.10;;;2.40;;
6825;SDS011;3451;52.476;13.316;2023-05-10T10:13:49;2.90;;;2.30;;
6825;SDS011;3451;52.476;13.316;2023-05-10T10:16:15;2.60;;;2.10;;
6825;SDS011;3451;52.476;13.316;2023-05-10T10:18:42;2.80;;;2.20;;
6825;SDS011;3451;52.476;13.316;2023-05-10T10:21:08;4.13;;;2.50;;
6825;SDS011;3451;52.476;13.316;2023-05-10T10:23:35;2.80;;;2.50;;
6825;SDS011;3451;52.476;13.316;2023-05-10T10:26:02;6.43;;;2.70;;
6825;SDS011;3451;52.476;13.316;2023-05-10T10:28:35;3.43;;;2.53;;
6825;SDS011;3451;52.476;13.316;2023-05-10T10:31:13;4.77;;;3.00;;
6825;SDS011;3451;52.476;13.316;2023-05-10T10:36:13;3.07;;;2.37;;
6825;SDS011;3451;52.476;13.316;2023-05-10T10:49:32;4.93;;;2.60;;
6825;SDS011;3451;52.476;13.316;2023-05-10T10:55:18;7.50;;;2.40;;
6825;SDS011;3451;52.476;13.316;2023-05-10T11:00:20;3.43;;;2.50;;
6825;SDS011;3451;52.476;13.316;2023-05-10T11:02:48;5.20;;;2.40;;
6825;SDS011;3451;52.476;13.316;2023-05-10T11:05:37;6.10;;;2.70;;
6825;SDS011;3451;52.476;13.316;2023-05-10T11:10:36;3.80;;;2.67;;
6825;SDS011;3451;52.476;13.316;2023-05-10T11:13:04;7.63;;;2.80;;
6825;SDS011;3451;52.476;13.316;2023-05-10T11:17:57;3.73;;;2.40;;
6825;SDS011;3451;52.476;13.316;2023-05-10T11:20:23;6.67;;;2.53;;
6825;SDS011;3451;52.476;13.316;2023-05-10T11:23:10;4.20;;;2.50;;
6825;SDS011;3451;52.476;13.316;2023-05-10T11:25:44;8.77;;;2.60;;
6825;SDS011;3451;52.476;13.316;2023-05-10T11:28:11;5.27;;;2.57;;
6825;SDS011;3451;52.476;13.316;2023-05-10T11:30:40;3.77;;;2.47;;
6825;SDS011;3451;52.476;13.316;2023-05-10T11:33:07;6.53;;;2.53;;
6825;SDS011;3451;52.476;13.316;2023-05-10T11:35:37;6.57;;;3.00;;
6825;SDS011;3451;52.476;13.316;2023-05-10T11:38:08;8.07;;;2.33;;
6825;SDS011;3451;52.476;13.316;2023-05-10T11:40:35;4.53;;;2.43;;
6825;SDS011;3451;52.476;13.316;2023-05-10T11:43:02;5.43;;;2.43;;
6825;SDS011;3451;52.476;13.316;2023-05-10T11:45:29;3.73;;;2.40;;
6825;SDS011;3451;52.476;13.316;2023-05-10T11:47:57;2.97;;;2.40;;
6825;SDS011;3451;52.476;13.316;2023-05-10T11:50:24;5.70;;;2.40;;
6825;SDS011;3451;52.476;13.316;2023-05-10T11:52:54;4.77;;;2.53;;
6825;SDS011;3451;52.476;13.316;2023-05-10T11:55:20;4.83;;;2.30;;
6825;SDS011;3451;52.476;13.316;2023-05-10T11:57:47;4.10;;;2.70;;
6825;SDS011;3451;52.476;13.316;2023-05-10T12:00:13;5.80;;;2.63;;
6825;SDS011;3451;52.476;13.316;2023-05-10T12:02:40;4.20;;;2.43;;
6825;SDS011;3451;52.476;13.316;2023-05-10T12:05:07;7.73;;;2.60;;
6825;SDS011;3451;52.476;13.316;2023-05-10T12:07:33;4.67;;;2.60;;
6825;SDS011;3451;52.476;13.316;2023-05-10T12:10:07;5.37;;;2.47;;
6825;SDS011;3451;52.476;13.316;2023-05-10T12:12:40;4.40;;;2.60;;
6825;SDS011;3451;52.476;13.316;2023-05-10T12:15:10;2.60;;;2.30;;
6825;SDS011;3451;52.476;13.316;2023-05-10T12:17:37;4.73;;;2.30;;
6825;SDS011;3451;52.476;13.316;2023-05-10T12:22:52;3.40;;;2.50;;
6825;SDS011;3451;52.476;13.316;2023-05-10T12:25:19;5.30;;;2.50;;
6825;SDS011;3451;52.476;13.316;2023-05-10T12:27:53;5.37;;;2.67;;
6825;SDS011;3451;52.476;13.316;2023-05-10T12:30:23;4.07;;;2.70;;
6825;SDS011;3451;52.476;13.316;2023-05-10T12:32:50;5.73;;;2.43;;
6825;SDS011;3451;52.476;13.316;2023-05-10T12:35:17;4.37;;;2.50;;
6825;SDS011;3451;52.476;13.316;2023-05-10T12:37:46;2.87;;;2.57;;
6825;SDS011;3451;52.476;13.316;2023-05-10T12:40:12;4.67;;;2.27;;
6825;SDS011;3451;52.476;13.316;2023-05-10T12:42:39;2.83;;;2.30;;
6825;SDS011;3451;52.476;13.316;2023-05-10T12:45:06;4.97;;;2.83;;
6825;SDS011;3451;52.476;13.316;2023-05-10T12:47:33;5.20;;;2.43;;
6825;SDS011;3451;52.476;13.316;2023-05-10T12:49:59;5.43;;;2.60;;
6825;SDS011;3451;52.476;13.316;2023-05-10T12:52:26;3.03;;;2.63;;
6825;SDS011;3451;52.476;13.316;2023-05-10T12:54:53;3.10;;;2.37;;
6825;SDS011;3451;52.476;13.316;2023-05-10T12:57:20;4.87;;;2.53;;
6825;SDS011;3451;52.476;13.316;2023-05-10T12:59:46;5.20;;;2.50;;
6825;SDS011;3451;52.476;13.316;2023-05-10T13:02:12;5.17;;;2.53;;
6825;SDS011;3451;52.476;13.316;2023-05-10T13:04:40;3.47;;;2.40;;
6825;SDS011;3451;52.476;13.316;2023-05-10T13:07:07;6.83;;;2.80;;
6825;SDS011;3451;52.476;13.316;2023-05-10T13:09:34;4.97;;;3.17;;
6825;SDS011;3451;52.476;13.316;2023-05-10T13:12:00;4.87;;;2.60;;
6825;SDS011;3451;52.476;13.316;2023-05-10T13:14:27;4.00;;;2.23;;
6825;SDS011;3451;52.476;13.316;2023-05-10T13:16:53;4.70;;;2.53;;
6825;SDS011;3451;52.476;13.316;2023-05-10T13:19:20;10.97;;;2.73;;
6825;SDS011;3451;52.476;13.316;2023-05-10T13:21:46;4.43;;;2.47;;
6825;SDS011;3451;52.476;13.316;2023-05-10T13:24:12;3.47;;;2.50;;
6825;SDS011;3451;52.476;13.316;2023-05-10T13:26:43;4.77;;;2.63;;
6825;SDS011;3451;52.476;13.316;2023-05-10T13:29:09;5.07;;;2.50;;
6825;SDS011;3451;52.476;13.316;2023-05-10T13:31:35;4.10;;;2.70;;
6825;SDS011;3451;52.476;13.316;2023-05-10T13:34:02;5.20;;;2.77;;
6825;SDS011;3451;52.476;13.316;2023-05-10T13:36:28;5.40;;;2.73;;
6825;SDS011;3451;52.476;13.316;2023-05-10T13:38:54;4.37;;;2.50;;
6825;SDS011;3451;52.476;13.316;2023-05-10T13:41:21;3.90;;;2.33;;
6825;SDS011;3451;52.476;13.316;2023-05-10T13:43:47;4.10;;;2.63;;
6825;SDS011;3451;52.476;13.316;2023-05-10T13:46:15;3.47;;;2.50;;
6825;SDS011;3451;52.476;13.316;2023-05-10T13:48:41;8.47;;;2.60;;
6825;SDS011;3451;52.476;13.316;2023-05-10T13:51:07;4.17;;;2.40;;
6825;SDS011;3451;52.476;13.316;2023-05-10T13:53:34;2.37;;;2.17;;
6825;SDS011;3451;52.476;13.316;2023-05-10T13:56:00;6.07;;;2.73;;
6825;SDS011;3451;52.476;13.316;2023-05-10T13:58:28;7.53;;;2.97;;
6825;SDS011;3451;52.476;13.316;2023-05-10T14:00:55;5.00;;;2.60;;
6825;SDS011;3451;52.476;13.316;2023-05-10T14:03:21;7.73;;;2.57;;
6825;SDS011;3451;52.476;13.316;2023-05-10T14:05:48;6.87;;;2.60;;
6825;SDS011;3451;52.476;13.316;2023-05-10T14:08:14;6.03;;;2.70;;
6825;SDS011;3451;52.476;13.316;2023-05-10T14:10:40;4.17;;;2.37;;
6825;SDS011;3451;52.476;13.316;2023-05-10T14:13:07;3.30;;;2.23;;
6825;SDS011;3451;52.476;13.316;2023-05-10T14:15:33;3.10;;;2.07;;
6825;SDS011;3451;52.476;13.316;2023-05-10T14:18:00;4.27;;;2.30;;
6825;SDS011;3451;52.476;13.316;2023-05-10T14:20:26;5.67;;;2.30;;
6825;SDS011;3451;52.476;13.316;2023-05-10T14:22:52;2.67;;;2.30;;
6825;SDS011;3451;52.476;13.316;2023-05-10T14:25:19;3.00;;;2.10;;
6825;SDS011;3451;52.476;13.316;2023-05-10T14:27:46;5.80;;;2.30;;
6825;SDS011;3451;52.476;13.316;2023-05-10T14:30:12;8.47;;;2.33;;
6825;SDS011;3451;52.476;13.316;2023-05-10T14:32:39;3.47;;;2.50;;
6825;SDS011;3451;52.476;13.316;2023-05-10T14:35:05;6.23;;;2.30;;
6825;SDS011;3451;52.476;13.316;2023-05-10T14:37:32;2.80;;;2.40;;
6825;SDS011;3451;52.476;13.316;2023-05-10T14:39:58;3.50;;;2.07;;
6825;SDS011;3451;52.476;13.316;2023-05-10T14:42:25;6.00;;;2.50;;
6825;SDS011;3451;52.476;13.316;2023-05-10T14:44:51;3.10;;;2.30;;
6825;SDS011;3451;52.476;13.316;2023-05-10T14:47:18;5.50;;;2.40;;
6825;SDS011;3451;52.476;13.316;2023-05-10T14:49:44;3.10;;;2.37;;
6825;SDS011;3451;52.476;13.316;2023-05-10T14:52:11;4.77;;;2.60;;
6825;SDS011;3451;52.476;13.316;2023-05-10T14:54:38;6.53;;;2.60;;
6825;SDS011;3451;52.476;13.316;2023-05-10T14:57:04;4.60;;;2.57;;
6825;SDS011;3451;52.476;13.316;2023-05-10T14:59:31;5.20;;;2.63;;
6825;SDS011;3451;52.476;13.316;2023-05-10T15:01:58;3.90;;;2.40;;
6825;SDS011;3451;52.476;13.316;2023-05-10T15:04:25;3.10;;;2.50;;
6825;SDS011;3451;52.476;13.316;2023-05-10T15:06:54;4.60;;;2.57;;
6825;SDS011;3451;52.476;13.316;2023-05-10T15:09:25;6.03;;;2.37;;
6825;SDS011;3451;52.476;13.316;2023-05-10T15:11:51;4.37;;;2.37;;
6825;SDS011;3451;52.476;13.316;2023-05-10T15:14:17;2.97;;;2.30;;
6825;SDS011;3451;52.476;13.316;2023-05-10T15:16:44;4.10;;;2.03;;
6825;SDS011;3451;52.476;13.316;2023-05-10T15:19:10;4.20;;;2.30;;
6825;SDS011;3451;52.476;13.316;2023-05-10T15:21:36;3.23;;;2.20;;
6825;SDS011;3451;52.476;13.316;2023-05-10T15:24:05;4.07;;;2.40;;
6825;SDS011;3451;52.476;13.316;2023-05-10T15:26:31;2.50;;;2.30;;
6825;SDS011;3451;52.476;13.316;2023-05-10T15:28:58;5.03;;;2.40;;
6825;SDS011;3451;52.476;13.316;2023-05-10T15:31:25;6.23;;;2.20;;
6825;SDS011;3451;52.476;13.316;2023-05-10T15:33:51;4.33;;;2.73;;
6825;SDS011;3451;52.476;13.316;2023-05-10T15:36:17;5.57;;;2.57;;
6825;SDS011;3451;52.476;13.316;2023-05-10T15:38:44;5.63;;;2.50;;
6825;SDS011;3451;52.476;13.316;2023-05-10T15:41:10;3.07;;;2.50;;
6825;SDS011;3451;52.476;13.316;2023-05-10T15:43:37;5.40;;;2.60;;